Time;durP1;ratioP1;P1;durP2;ratioP2;P2;SDS_P1;SDS_P2;PMS_P1;PMS_P2;Temp;Humidity;BMP_temperature;BMP_pressure;BME280_temperature;BME280_humidity;BME280_pressure;Samples;Min_cycle;Max_cycle;Signal;HPM_P1;HPM_P2
2021/08/06 00:00:59;;;;;;;3.50;2.00;;;;;;;;;;726729;191;918198;-70
2021/08/06 00:03:24;;;;;;;2.50;1.90;;;;;;;;;;732205;192;919286;-70
2021/08/06 00:05:54;;;;;;;3.90;1.50;;;;;;;;;;728459;190;922085;-70
2021/08/06 00:08:16;;;;;;;6.63;1.70;;;;;;;;;;728823;192;919982;-70
2021/08/06 00:10:42;;;;;;;8.27;1.73;;;;;;;;;;732633;191;873486;-70
2021/08/06 00:13:08;;;;;;;6.50;1.77;;;;;;;;;;728720;190;919314;-71
2021/08/06 00:15:34;;;;;;;4.87;1.85;;;;;;;;;;725358;191;919219;-70
2021/08/06 00:18:00;;;;;;;8.43;2.17;;;;;;;;;;727916;191;919263;-70
2021/08/06 00:20:25;;;;;;;16.30;2.27;;;;;;;;;;726377;191;919573;-70
2021/08/06 00:22:51;;;;;;;3.60;1.50;;;;;;;;;;725872;192;919082;-70
2021/08/06 00:25:17;;;;;;;4.23;1.10;;;;;;;;;;725605;190;919390;-69
2021/08/06 00:27:43;;;;;;;2.87;1.77;;;;;;;;;;736949;190;918997;-71
2021/08/06 00:30:09;;;;;;;5.80;1.53;;;;;;;;;;727125;191;919459;-70
2021/08/06 00:32:35;;;;;;;2.10;1.30;;;;;;;;;;726846;192;919673;-69
2021/08/06 00:35:01;;;;;;;2.93;2.23;;;;;;;;;;733080;192;919222;-69
2021/08/06 00:37:27;;;;;;;5.77;1.60;;;;;;;;;;723208;192;919490;-70
2021/08/06 00:39:53;;;;;;;3.50;2.40;;;;;;;;;;726257;193;919578;-70
2021/08/06 00:42:18;;;;;;;3.13;1.97;;;;;;;;;;731262;192;919245;-70
2021/08/06 00:44:44;;;;;;;2.67;1.50;;;;;;;;;;724921;193;919261;-70
2021/08/06 00:47:10;;;;;;;3.00;1.47;;;;;;;;;;726859;193;918807;-69
2021/08/06 00:49:36;;;;;;;5.63;1.33;;;;;;;;;;732259;192;918918;-70
2021/08/06 00:52:02;;;;;;;3.90;1.83;;;;;;;;;;726742;192;919091;-69
2021/08/06 00:54:28;;;;;;;2.80;1.50;;;;;;;;;;725753;192;918698;-69
2021/08/06 00:56:53;;;;;;;3.63;1.33;;;;;;;;;;725424;193;918818;-69
2021/08/06 00:59:19;;;;;;;3.62;2.10;;;;;;;;;;731888;192;918959;-70
2021/08/06 01:01:45;;;;;;;3.50;2.43;;;;;;;;;;726136;192;919309;-70
2021/08/06 01:04:11;;;;;;;1.80;1.00;;;;;;;;;;726020;190;919105;-70
2021/08/06 01:06:37;;;;;;;3.87;1.23;;;;;;;;;;731136;191;915246;-70
2021/08/06 01:09:03;;;;;;;7.00;1.30;;;;;;;;;;727552;192;920362;-69
2021/08/06 01:11:29;;;;;;;7.27;2.20;;;;;;;;;;726893;192;919311;-70
2021/08/06 01:13:55;;;;;;;2.47;1.40;;;;;;;;;;733257;190;998133;-70
2021/08/06 01:16:20;;;;;;;2.80;1.60;;;;;;;;;;730231;192;919525;-70
2021/08/06 01:18:47;;;;;;;7.03;1.70;;;;;;;;;;726402;192;919204;-70
2021/08/06 01:21:13;;;;;;;8.33;1.73;;;;;;;;;;727390;191;918985;-69
2021/08/06 01:23:39;;;;;;;4.10;1.73;;;;;;;;;;728477;193;922500;-70
2021/08/06 01:26:04;;;;;;;3.70;1.50;;;;;;;;;;726588;191;919438;-70
2021/08/06 01:28:30;;;;;;;2.70;1.63;;;;;;;;;;726600;191;941795;-70
2021/08/06 01:30:56;;;;;;;8.70;1.77;;;;;;;;;;730950;192;918411;-70
2021/08/06 01:33:22;;;;;;;4.00;1.60;;;;;;;;;;724557;191;917258;-69
2021/08/06 01:35:48;;;;;;;4.03;1.80;;;;;;;;;;723906;192;920375;-70
2021/08/06 01:38:14;;;;;;;9.30;2.00;;;;;;;;;;730342;193;919272;-70
2021/08/06 01:40:39;;;;;;;10.03;1.90;;;;;;;;;;726692;191;918791;-70
2021/08/06 01:43:06;;;;;;;3.90;1.50;;;;;;;;;;725805;191;920117;-70
2021/08/06 01:45:32;;;;;;;5.70;1.80;;;;;;;;;;731325;191;919124;-70
2021/08/06 01:47:58;;;;;;;5.70;1.77;;;;;;;;;;724208;191;920031;-70
2021/08/06 01:50:24;;;;;;;3.37;1.40;;;;;;;;;;726812;191;919666;-70
2021/08/06 01:52:54;;;;;;;7.60;1.90;;;;;;;;;;726497;191;919934;-69
2021/08/06 01:55:17;;;;;;;8.57;1.90;;;;;;;;;;733457;191;919217;-70
2021/08/06 01:57:43;;;;;;;4.10;1.60;;;;;;;;;;725550;190;919041;-70
2021/08/06 02:00:09;;;;;;;3.97;1.65;;;;;;;;;;725467;192;920924;-70
2021/08/06 02:02:35;;;;;;;4.70;2.00;;;;;;;;;;731532;191;919775;-70
2021/08/06 02:05:00;;;;;;;5.35;2.05;;;;;;;;;;727915;192;924831;-70
2021/08/06 02:07:26;;;;;;;5.73;2.10;;;;;;;;;;724028;191;919117;-70
2021/08/06 02:09:52;;;;;;;5.07;1.67;;;;;;;;;;733024;190;919079;-70
2021/08/06 02:12:18;;;;;;;3.30;1.73;;;;;;;;;;728560;192;918898;-70
2021/08/06 02:14:44;;;;;;;3.90;1.90;;;;;;;;;;725733;192;918831;-70
2021/08/06 02:17:10;;;;;;;3.10;1.77;;;;;;;;;;727639;191;918848;-70
2021/08/06 02:19:35;;;;;;;2.50;1.57;;;;;;;;;;728779;192;925582;-70
2021/08/06 02:22:01;;;;;;;3.40;2.13;;;;;;;;;;726108;192;919170;-70
2021/08/06 02:24:27;;;;;;;3.67;1.93;;;;;;;;;;727715;191;921495;-70
2021/08/06 02:26:53;;;;;;;5.43;2.07;;;;;;;;;;730624;190;923439;-70
2021/08/06 02:29:19;;;;;;;10.80;2.20;;;;;;;;;;726959;192;920272;-70
2021/08/06 02:31:45;;;;;;;4.70;1.73;;;;;;;;;;726200;191;1021907;-70
2021/08/06 02:34:10;;;;;;;2.63;1.67;;;;;;;;;;732138;192;918077;-69
2021/08/06 02:36:36;;;;;;;8.00;3.00;;;;;;;;;;727394;191;919402;-69
2021/08/06 02:39:02;;;;;;;6.33;1.80;;;;;;;;;;727223;191;919900;-70
2021/08/06 02:41:28;;;;;;;4.00;1.90;;;;;;;;;;733581;190;915263;-70
2021/08/06 02:43:54;;;;;;;4.00;1.60;;;;;;;;;;725404;190;920387;-70
2021/08/06 02:46:20;;;;;;;2.77;1.80;;;;;;;;;;727391;190;925916;-69
2021/08/06 02:48:45;;;;;;;5.30;2.13;;;;;;;;;;726979;192;920782;-70
2021/08/06 02:51:11;;;;;;;3.70;2.10;;;;;;;;;;730361;192;918294;-70
2021/08/06 02:53:37;;;;;;;3.00;1.73;;;;;;;;;;726950;190;922164;-70
2021/08/06 02:56:03;;;;;;;5.80;1.90;;;;;;;;;;726042;193;919494;-70
2021/08/06 02:58:29;;;;;;;2.70;1.77;;;;;;;;;;731849;192;918478;-69
2021/08/06 03:00:55;;;;;;;5.83;1.90;;;;;;;;;;727322;192;922635;-70
2021/08/06 03:03:21;;;;;;;3.30;1.95;;;;;;;;;;726141;191;919176;-70
2021/08/06 03:05:46;;;;;;;4.63;2.03;;;;;;;;;;731535;192;919674;-70
2021/08/06 03:08:12;;;;;;;3.20;2.00;;;;;;;;;;724937;190;917576;-70
2021/08/06 03:10:39;;;;;;;3.90;1.67;;;;;;;;;;725543;191;918675;-70
2021/08/06 03:13:04;;;;;;;4.90;2.13;;;;;;;;;;727833;191;920143;-69
2021/08/06 03:15:30;;;;;;;2.70;1.83;;;;;;;;;;724434;190;925782;-70
2021/08/06 03:17:56;;;;;;;3.30;2.07;;;;;;;;;;725944;191;919105;-70
2021/08/06 03:20:22;;;;;;;4.33;1.90;;;;;;;;;;726317;192;918130;-70
2021/08/06 03:22:48;;;;;;;3.13;2.17;;;;;;;;;;730794;192;881080;-69
2021/08/06 03:25:14;;;;;;;2.93;1.83;;;;;;;;;;728477;191;909583;-69
2021/08/06 03:27:40;;;;;;;2.80;1.40;;;;;;;;;;726244;192;912953;-70
2021/08/06 03:30:06;;;;;;;2.97;2.03;;;;;;;;;;730060;192;910546;-69
2021/08/06 03:32:32;;;;;;;3.70;2.10;;;;;;;;;;727670;191;919218;-70
2021/08/06 03:34:58;;;;;;;2.70;1.73;;;;;;;;;;727918;191;918617;-70
2021/08/06 03:37:24;;;;;;;5.53;2.23;;;;;;;;;;731962;192;919238;-70
2021/08/06 03:39:49;;;;;;;9.33;2.80;;;;;;;;;;726815;191;1021438;-70
2021/08/06 03:42:15;;;;;;;10.53;3.57;;;;;;;;;;728539;192;919038;-70
2021/08/06 03:44:41;;;;;;;6.67;2.30;;;;;;;;;;726171;191;966387;-69
2021/08/06 03:47:07;;;;;;;5.40;2.37;;;;;;;;;;732077;192;931830;-70
2021/08/06 03:49:33;;;;;;;3.57;2.60;;;;;;;;;;727870;191;919248;-69
2021/08/06 03:51:59;;;;;;;2.83;1.93;;;;;;;;;;726362;191;920767;-70
2021/08/06 03:54:25;;;;;;;3.87;2.10;;;;;;;;;;733398;192;917751;-70
2021/08/06 03:56:50;;;;;;;4.55;2.42;;;;;;;;;;726926;191;918408;-70
2021/08/06 03:59:16;;;;;;;5.90;2.00;;;;;;;;;;725413;192;919712;-69
2021/08/06 04:01:42;;;;;;;7.70;2.40;;;;;;;;;;731566;192;1021828;-69
2021/08/06 04:04:08;;;;;;;5.03;2.23;;;;;;;;;;725281;192;921631;-70
2021/08/06 04:06:34;;;;;;;5.47;2.40;;;;;;;;;;730155;192;919947;-70
2021/08/06 04:09:00;;;;;;;2.90;1.83;;;;;;;;;;729356;191;918384;-69
2021/08/06 04:11:25;;;;;;;9.17;3.00;;;;;;;;;;736989;190;919050;-69
2021/08/06 04:13:51;;;;;;;2.70;2.17;;;;;;;;;;725005;191;921811;-70
2021/08/06 04:16:17;;;;;;;4.00;2.03;;;;;;;;;;726723;191;919693;-69
2021/08/06 04:18:43;;;;;;;3.70;2.40;;;;;;;;;;731219;191;945869;-69
2021/08/06 04:21:09;;;;;;;3.90;2.63;;;;;;;;;;725859;191;1018767;-69
2021/08/06 04:23:35;;;;;;;2.40;1.90;;;;;;;;;;727317;190;916231;-70
2021/08/06 04:26:00;;;;;;;3.53;2.53;;;;;;;;;;731352;192;914768;-70
2021/08/06 04:28:26;;;;;;;5.27;2.40;;;;;;;;;;725549;192;919223;-69
2021/08/06 04:30:52;;;;;;;5.20;2.93;;;;;;;;;;727538;192;918947;-70
2021/08/06 04:33:18;;;;;;;5.47;2.90;;;;;;;;;;731724;191;918712;-70
2021/08/06 04:35:44;;;;;;;3.73;2.57;;;;;;;;;;726645;190;918983;-69
2021/08/06 04:38:10;;;;;;;3.20;2.33;;;;;;;;;;726827;192;919393;-70
2021/08/06 04:40:35;;;;;;;3.00;2.33;;;;;;;;;;727360;191;919220;-69
2021/08/06 04:43:01;;;;;;;4.00;2.97;;;;;;;;;;737185;187;918098;-69
2021/08/06 04:45:27;;;;;;;4.90;3.10;;;;;;;;;;723493;191;919464;-70
2021/08/06 04:47:55;;;;;;;4.40;2.80;;;;;;;;;;721960;193;919274;-69
2021/08/06 04:50:19;;;;;;;6.73;3.20;;;;;;;;;;734436;192;916410;-69
2021/08/06 04:52:45;;;;;;;7.70;3.30;;;;;;;;;;726596;191;919343;-69
2021/08/06 04:55:11;;;;;;;4.00;3.20;;;;;;;;;;726956;190;976933;-69
2021/08/06 04:57:37;;;;;;;8.60;4.17;;;;;;;;;;732315;191;915765;-69
2021/08/06 05:00:04;;;;;;;4.57;3.77;;;;;;;;;;725070;192;916210;-70
2021/08/06 05:02:29;;;;;;;8.40;4.00;;;;;;;;;;725594;192;918789;-69
2021/08/06 05:04:55;;;;;;;6.95;4.55;;;;;;;;;;726533;192;918682;-68
2021/08/06 05:07:21;;;;;;;5.33;4.43;;;;;;;;;;734611;188;920804;-70
2021/08/06 05:09:47;;;;;;;10.23;3.90;;;;;;;;;;727121;191;919611;-70
2021/08/06 05:12:13;;;;;;;10.00;4.53;;;;;;;;;;726603;192;919704;-69
2021/08/06 05:14:39;;;;;;;5.68;4.12;;;;;;;;;;732109;192;921826;-69
2021/08/06 05:17:05;;;;;;;5.07;3.63;;;;;;;;;;725852;193;919568;-69
2021/08/06 05:19:30;;;;;;;7.00;4.03;;;;;;;;;;726283;192;918761;-69
2021/08/06 05:21:56;;;;;;;8.23;3.97;;;;;;;;;;731244;192;921596;-69
2021/08/06 05:24:22;;;;;;;6.23;3.73;;;;;;;;;;729700;192;919352;-69
2021/08/06 05:26:48;;;;;;;4.73;4.13;;;;;;;;;;726652;192;919256;-69
2021/08/06 05:29:14;;;;;;;5.50;4.33;;;;;;;;;;731876;192;919552;-69
2021/08/06 05:31:40;;;;;;;4.83;3.43;;;;;;;;;;724790;192;919455;-69
2021/08/06 05:34:05;;;;;;;5.50;3.80;;;;;;;;;;726538;192;918949;-69
2021/08/06 05:36:31;;;;;;;7.60;4.37;;;;;;;;;;725213;192;1003697;-69
2021/08/06 05:38:57;;;;;;;5.23;3.77;;;;;;;;;;725190;193;919719;-69
2021/08/06 05:41:23;;;;;;;5.77;3.93;;;;;;;;;;726804;191;920017;-69
2021/08/06 05:43:49;;;;;;;4.07;3.30;;;;;;;;;;726310;192;918912;-69
2021/08/06 05:46:15;;;;;;;5.73;3.70;;;;;;;;;;730996;191;878844;-69
2021/08/06 05:48:40;;;;;;;5.43;4.20;;;;;;;;;;724853;190;919129;-70
2021/08/06 05:51:06;;;;;;;6.87;3.83;;;;;;;;;;726691;192;1021909;-69
2021/08/06 05:53:32;;;;;;;12.40;3.30;;;;;;;;;;733229;190;918748;-69
2021/08/06 05:55:59;;;;;;;4.70;4.07;;;;;;;;;;728252;191;919290;-70
2021/08/06 05:58:24;;;;;;;5.70;4.20;;;;;;;;;;728068;190;919610;-69
2021/08/06 06:00:50;;;;;;;6.22;4.00;;;;;;;;;;731922;192;1021311;-69
2021/08/06 06:03:17;;;;;;;7.20;4.30;;;;;;;;;;726556;192;919295;-70
2021/08/06 06:05:41;;;;;;;5.07;3.80;;;;;;;;;;725754;192;919963;-69
2021/08/06 06:08:07;;;;;;;7.87;4.03;;;;;;;;;;727061;191;922227;-69
2021/08/06 06:10:33;;;;;;;6.00;4.70;;;;;;;;;;729974;192;918752;-69
2021/08/06 06:12:59;;;;;;;5.47;4.57;;;;;;;;;;725199;191;1027702;-71
2021/08/06 06:15:25;;;;;;;5.10;3.50;;;;;;;;;;724700;192;919306;-69
2021/08/06 06:17:51;;;;;;;13.10;4.40;;;;;;;;;;730352;192;919569;-70
2021/08/06 06:20:17;;;;;;;8.63;4.37;;;;;;;;;;726935;191;897957;-69
2021/08/06 06:22:42;;;;;;;8.03;4.70;;;;;;;;;;728670;192;918960;-69
2021/08/06 06:25:09;;;;;;;9.77;4.77;;;;;;;;;;731704;192;919493;-69
2021/08/06 06:27:35;;;;;;;5.03;3.80;;;;;;;;;;724230;191;919061;-69
2021/08/06 06:30:00;;;;;;;8.47;4.67;;;;;;;;;;728815;192;918358;-70
2021/08/06 06:32:26;;;;;;;5.03;4.03;;;;;;;;;;726063;191;926275;-69
2021/08/06 06:34:52;;;;;;;8.07;4.37;;;;;;;;;;726648;193;919213;-69
2021/08/06 06:37:18;;;;;;;6.17;3.70;;;;;;;;;;728924;191;890999;-69
2021/08/06 06:39:44;;;;;;;7.87;3.83;;;;;;;;;;726909;191;918981;-69
2021/08/06 06:42:10;;;;;;;5.70;4.07;;;;;;;;;;730966;191;898062;-70
2021/08/06 06:44:36;;;;;;;5.17;4.13;;;;;;;;;;725292;191;918950;-69
2021/08/06 06:47:01;;;;;;;8.40;4.60;;;;;;;;;;726631;190;919212;-69
2021/08/06 06:49:27;;;;;;;10.90;4.37;;;;;;;;;;731073;191;920350;-69
2021/08/06 06:51:53;;;;;;;4.87;4.13;;;;;;;;;;724399;192;1069082;-70
2021/08/06 06:54:21;;;;;;;4.60;3.83;;;;;;;;;;726824;192;919935;-69
2021/08/06 06:56:45;;;;;;;4.63;3.90;;;;;;;;;;731374;191;918411;-70
2021/08/06 06:59:11;;;;;;;15.00;4.77;;;;;;;;;;724519;191;920797;-70
2021/08/06 07:01:36;;;;;;;6.20;4.50;;;;;;;;;;726909;190;919310;-70
2021/08/06 07:04:02;;;;;;;6.37;5.00;;;;;;;;;;727253;190;919452;-71
2021/08/06 07:06:28;;;;;;;4.93;4.30;;;;;;;;;;733742;191;918760;-69
2021/08/06 07:08:54;;;;;;;9.07;4.80;;;;;;;;;;727369;191;919474;-70
2021/08/06 07:11:20;;;;;;;5.10;4.30;;;;;;;;;;726865;191;938938;-70
2021/08/06 07:13:46;;;;;;;5.47;4.40;;;;;;;;;;732537;191;919121;-70
2021/08/06 07:16:14;;;;;;;8.17;3.93;;;;;;;;;;726430;191;918750;-70
2021/08/06 07:18:39;;;;;;;6.70;4.60;;;;;;;;;;726118;192;918782;-70
2021/08/06 07:21:10;;;;;;;7.20;4.60;;;;;;;;;;731131;192;919265;-69
2021/08/06 07:23:31;;;;;;;5.07;4.20;;;;;;;;;;726256;192;919882;-69
2021/08/06 07:25:57;;;;;;;4.90;4.00;;;;;;;;;;724536;192;919032;-70
2021/08/06 07:28:23;;;;;;;7.70;4.37;;;;;;;;;;725392;191;1002418;-70
2021/08/06 07:30:49;;;;;;;8.57;5.30;;;;;;;;;;734810;190;919327;-71
2021/08/06 07:33:14;;;;;;;4.90;4.20;;;;;;;;;;726673;192;918998;-70
2021/08/06 07:35:41;;;;;;;4.80;4.20;;;;;;;;;;727866;190;918906;-70
2021/08/06 07:38:06;;;;;;;5.35;3.65;;;;;;;;;;731507;191;919402;-70
2021/08/06 07:40:32;;;;;;;5.33;4.20;;;;;;;;;;726282;192;919332;-70
2021/08/06 07:42:59;;;;;;;10.77;5.75;;;;;;;;;;724013;192;920391;-71
2021/08/06 07:45:24;;;;;;;6.33;4.37;;;;;;;;;;730864;192;919446;-70
2021/08/06 07:47:50;;;;;;;16.80;5.03;;;;;;;;;;725780;193;919370;-70
2021/08/06 07:50:16;;;;;;;5.30;4.23;;;;;;;;;;725483;192;920565;-70
2021/08/06 07:52:42;;;;;;;7.73;4.80;;;;;;;;;;729456;191;919564;-68
2021/08/06 07:55:08;;;;;;;6.73;4.53;;;;;;;;;;735525;187;918366;-70
2021/08/06 07:57:34;;;;;;;5.10;3.93;;;;;;;;;;725816;192;917858;-70
2021/08/06 08:00:00;;;;;;;6.10;4.00;;;;;;;;;;725591;192;918668;-70
2021/08/06 08:02:26;;;;;;;4.80;4.30;;;;;;;;;;730474;192;919979;-71
2021/08/06 08:04:52;;;;;;;5.37;4.30;;;;;;;;;;723693;190;1134393;-70
2021/08/06 08:07:17;;;;;;;4.73;4.03;;;;;;;;;;725802;193;918823;-70
2021/08/06 08:09:43;;;;;;;6.07;4.13;;;;;;;;;;731038;191;919793;-70
2021/08/06 08:12:10;;;;;;;4.67;3.90;;;;;;;;;;724632;192;919157;-69
2021/08/06 08:14:35;;;;;;;4.27;3.73;;;;;;;;;;726328;191;918021;-71
2021/08/06 08:17:01;;;;;;;6.60;5.90;;;;;;;;;;732256;192;920314;-72
2021/08/06 08:19:27;;;;;;;4.55;3.92;;;;;;;;;;728417;192;918048;-69
2021/08/06 08:21:52;;;;;;;10.47;4.03;;;;;;;;;;728289;191;922046;-69
2021/08/06 08:24:18;;;;;;;5.17;4.17;;;;;;;;;;728090;192;918787;-70
2021/08/06 08:26:44;;;;;;;6.83;3.43;;;;;;;;;;731677;192;924045;-71
2021/08/06 08:29:10;;;;;;;4.20;3.50;;;;;;;;;;726483;191;921914;-69
2021/08/06 08:31:36;;;;;;;4.50;3.60;;;;;;;;;;725605;191;1423038;-69
2021/08/06 08:34:02;;;;;;;5.73;4.10;;;;;;;;;;730103;189;916182;-70
2021/08/06 08:36:28;;;;;;;9.73;3.80;;;;;;;;;;724085;191;920491;-70
2021/08/06 08:38:54;;;;;;;6.13;3.67;;;;;;;;;;725400;192;918843;-68
2021/08/06 08:41:19;;;;;;;3.50;2.97;;;;;;;;;;730308;192;1119272;-69
2021/08/06 08:43:45;;;;;;;3.93;3.07;;;;;;;;;;726661;190;896372;-70
2021/08/06 08:46:11;;;;;;;6.90;3.60;;;;;;;;;;727296;190;912635;-70
2021/08/06 08:48:37;;;;;;;6.15;3.65;;;;;;;;;;727787;190;913022;-67
2021/08/06 08:51:03;;;;;;;8.90;3.07;;;;;;;;;;726427;193;910564;-68
2021/08/06 08:53:29;;;;;;;4.77;3.90;;;;;;;;;;725909;192;920317;-69
2021/08/06 08:55:55;;;;;;;5.80;3.40;;;;;;;;;;727761;191;911960;-67
2021/08/06 08:58:20;;;;;;;4.00;2.90;;;;;;;;;;735741;191;622414;-68
2021/08/06 09:00:46;;;;;;;5.57;3.37;;;;;;;;;;727886;192;919322;-68
2021/08/06 09:03:18;;;;;;;8.82;3.60;;;;;;;;;;724414;191;990291;-69
2021/08/06 09:05:44;;;;;;;4.70;3.20;;;;;;;;;;733919;192;919399;-68
2021/08/06 09:08:16;;;;;;;6.03;3.47;;;;;;;;;;724319;192;919729;-68
2021/08/06 09:10:42;;;;;;;7.83;3.33;;;;;;;;;;728150;192;918417;-68
2021/08/06 09:13:07;;;;;;;13.63;4.00;;;;;;;;;;724457;193;919988;-67
2021/08/06 09:15:47;;;;;;;5.83;4.20;;;;;;;;;;731271;192;918349;-68
2021/08/06 09:18:19;;;;;;;5.67;3.30;;;;;;;;;;730148;192;918904;-69
2021/08/06 09:20:45;;;;;;;4.40;3.17;;;;;;;;;;726390;192;918608;-69
2021/08/06 09:23:10;;;;;;;6.57;3.20;;;;;;;;;;725893;193;919476;-67
2021/08/06 09:25:36;;;;;;;4.80;3.60;;;;;;;;;;728071;192;921135;-67
2021/08/06 09:28:02;;;;;;;7.50;3.00;;;;;;;;;;738000;187;919443;-67
2021/08/06 09:30:34;;;;;;;3.43;2.93;;;;;;;;;;728353;191;920550;-69
2021/08/06 09:33:00;;;;;;;5.70;2.77;;;;;;;;;;729297;192;918848;-69
2021/08/06 09:35:25;;;;;;;3.27;2.53;;;;;;;;;;732101;192;918307;-68
2021/08/06 09:37:52;;;;;;;3.30;2.50;;;;;;;;;;725049;191;919436;-69
2021/08/06 09:40:17;;;;;;;3.58;3.10;;;;;;;;;;726119;191;1022133;-69
2021/08/06 09:42:46;;;;;;;3.83;2.83;;;;;;;;;;731491;191;919841;-68
2021/08/06 09:45:14;;;;;;;3.70;2.87;;;;;;;;;;732890;192;919910;-67
2021/08/06 09:47:39;;;;;;;5.33;3.43;;;;;;;;;;727861;192;921204;-67
2021/08/06 09:50:06;;;;;;;4.50;2.80;;;;;;;;;;727135;190;919820;-68
2021/08/06 09:52:35;;;;;;;4.33;2.90;;;;;;;;;;731906;192;919276;-67
2021/08/06 09:55:01;;;;;;;5.73;2.87;;;;;;;;;;728099;191;919794;-68
2021/08/06 09:57:27;;;;;;;5.70;3.63;;;;;;;;;;726128;191;924330;-68
2021/08/06 09:59:54;;;;;;;3.47;2.80;;;;;;;;;;727335;191;919073;-67
2021/08/06 10:02:20;;;;;;;4.63;3.30;;;;;;;;;;739912;188;921627;-69
2021/08/06 10:04:58;;;;;;;5.67;2.80;;;;;;;;;;724376;192;920968;-68
2021/08/06 10:07:24;;;;;;;4.23;2.67;;;;;;;;;;725825;192;916714;-68
2021/08/06 10:09:50;;;;;;;7.40;3.00;;;;;;;;;;725760;191;921686;-68
2021/08/06 10:12:16;;;;;;;6.27;3.07;;;;;;;;;;734851;187;920908;-68
2021/08/06 10:14:41;;;;;;;4.60;2.80;;;;;;;;;;726161;191;920400;-69
2021/08/06 10:17:07;;;;;;;5.57;2.67;;;;;;;;;;726709;191;919226;-69
2021/08/06 10:19:33;;;;;;;4.10;2.87;;;;;;;;;;731171;191;919441;-69
2021/08/06 10:21:59;;;;;;;3.00;2.37;;;;;;;;;;727991;191;912063;-69
2021/08/06 10:24:25;;;;;;;10.33;3.00;;;;;;;;;;724938;191;1012955;-68
2021/08/06 10:26:51;;;;;;;3.93;2.77;;;;;;;;;;731379;191;911774;-69
2021/08/06 10:29:17;;;;;;;6.03;3.17;;;;;;;;;;726125;193;912611;-68
2021/08/06 10:31:43;;;;;;;5.30;2.90;;;;;;;;;;725098;190;919764;-68
2021/08/06 10:34:09;;;;;;;4.60;2.90;;;;;;;;;;729365;193;919110;-69
2021/08/06 10:36:39;;;;;;;2.80;2.30;;;;;;;;;;733205;192;918406;-70
2021/08/06 10:39:04;;;;;;;3.03;2.30;;;;;;;;;;726984;191;953667;-69
2021/08/06 10:41:30;;;;;;;4.60;2.90;;;;;;;;;;726605;192;919239;-68
2021/08/06 10:44:00;;;;;;;3.90;3.03;;;;;;;;;;730162;192;918326;-69
2021/08/06 10:46:25;;;;;;;3.30;2.20;;;;;;;;;;719943;192;919694;-68
2021/08/06 10:48:51;;;;;;;3.22;2.17;;;;;;;;;;725189;192;919583;-69
2021/08/06 10:51:17;;;;;;;3.65;2.70;;;;;;;;;;729972;192;919047;-67
2021/08/06 10:53:44;;;;;;;4.40;2.10;;;;;;;;;;737648;189;919605;-69
2021/08/06 10:56:25;;;;;;;7.37;2.63;;;;;;;;;;727738;192;919925;-68
2021/08/06 10:58:53;;;;;;;3.53;2.90;;;;;;;;;;728382;192;919363;-69
2021/08/06 11:01:40;;;;;;;3.73;2.30;;;;;;;;;;727525;192;918837;-69
2021/08/06 11:04:24;;;;;;;3.60;2.80;;;;;;;;;;725494;191;919391;-71
2021/08/06 11:06:52;;;;;;;6.47;3.10;;;;;;;;;;727200;192;919816;-68
2021/08/06 11:09:38;;;;;;;3.80;3.00;;;;;;;;;;730894;191;919528;-69
2021/08/06 11:12:06;;;;;;;4.70;3.13;;;;;;;;;;726111;192;919127;-69
2021/08/06 11:14:49;;;;;;;4.00;2.43;;;;;;;;;;733165;189;919466;-68
2021/08/06 11:17:15;;;;;;;6.57;2.97;;;;;;;;;;729942;192;919657;-68
2021/08/06 11:19:41;;;;;;;5.07;2.40;;;;;;;;;;729441;192;917502;-68
2021/08/06 11:22:07;;;;;;;4.97;3.13;;;;;;;;;;727582;190;919597;-68
2021/08/06 11:24:35;;;;;;;3.67;2.70;;;;;;;;;;730563;191;920182;-71
2021/08/06 11:27:00;;;;;;;3.92;2.92;;;;;;;;;;727408;192;920280;-67
2021/08/06 11:29:26;;;;;;;2.83;2.27;;;;;;;;;;726585;191;918846;-69
2021/08/06 11:32:00;;;;;;;4.20;2.83;;;;;;;;;;731086;192;914830;-68
2021/08/06 11:34:26;;;;;;;3.43;3.07;;;;;;;;;;733918;192;919764;-69
2021/08/06 11:36:55;;;;;;;5.77;3.13;;;;;;;;;;726141;192;923356;-67
2021/08/06 11:39:21;;;;;;;5.23;3.10;;;;;;;;;;724898;192;919414;-68
2021/08/06 11:41:47;;;;;;;4.97;3.03;;;;;;;;;;731070;192;919165;-68
2021/08/06 11:44:13;;;;;;;4.07;3.00;;;;;;;;;;725633;192;919453;-68
2021/08/06 11:46:46;;;;;;;3.80;2.50;;;;;;;;;;726632;193;916286;-67
2021/08/06 11:49:12;;;;;;;3.10;2.60;;;;;;;;;;725591;192;928070;-68
2021/08/06 11:51:43;;;;;;;7.53;2.50;;;;;;;;;;733568;192;919518;-68
2021/08/06 11:54:09;;;;;;;3.80;3.20;;;;;;;;;;731907;189;918789;-67
2021/08/06 11:56:35;;;;;;;4.70;2.73;;;;;;;;;;728305;191;919107;-68
2021/08/06 11:59:01;;;;;;;3.17;2.60;;;;;;;;;;726958;192;919288;-68
2021/08/06 12:01:27;;;;;;;3.03;2.67;;;;;;;;;;729969;192;918144;-69
2021/08/06 12:03:53;;;;;;;4.50;2.67;;;;;;;;;;727112;192;921412;-67
2021/08/06 12:06:18;;;;;;;2.97;2.20;;;;;;;;;;725154;192;919627;-68
2021/08/06 12:08:44;;;;;;;4.30;2.20;;;;;;;;;;730638;192;919136;-69
2021/08/06 12:11:12;;;;;;;3.83;2.90;;;;;;;;;;728375;191;918725;-68
2021/08/06 12:13:38;;;;;;;5.10;2.37;;;;;;;;;;728021;191;816990;-68
2021/08/06 12:16:13;;;;;;;4.10;3.33;;;;;;;;;;728178;192;1367968;-70
2021/08/06 12:18:39;;;;;;;3.13;2.60;;;;;;;;;;731647;192;919323;-69
2021/08/06 12:21:05;;;;;;;3.93;2.60;;;;;;;;;;731076;192;815328;-69
2021/08/06 12:23:31;;;;;;;6.37;3.30;;;;;;;;;;731235;191;621287;-69
2021/08/06 12:26:01;;;;;;;4.40;2.70;;;;;;;;;;736173;190;621120;-70
2021/08/06 12:28:27;;;;;;;3.60;2.23;;;;;;;;;;734969;192;621459;-69
2021/08/06 12:30:53;;;;;;;4.10;2.30;;;;;;;;;;731006;191;629825;-69
2021/08/06 12:33:21;;;;;;;4.40;2.50;;;;;;;;;;724112;190;919023;-68
2021/08/06 12:35:46;;;;;;;5.23;2.90;;;;;;;;;;735019;190;923004;-69
2021/08/06 12:38:18;;;;;;;3.90;2.40;;;;;;;;;;725233;191;919207;-70
2021/08/06 12:40:44;;;;;;;4.10;2.35;;;;;;;;;;724790;191;919302;-69
2021/08/06 12:43:16;;;;;;;2.47;1.60;;;;;;;;;;725410;189;921941;-66
2021/08/06 12:45:42;;;;;;;2.60;1.73;;;;;;;;;;727996;193;918384;-69
2021/08/06 12:48:07;;;;;;;4.10;1.83;;;;;;;;;;726265;191;919250;-67
2021/08/06 12:50:33;;;;;;;9.60;2.03;;;;;;;;;;727472;191;927797;-68
2021/08/06 12:52:59;;;;;;;3.30;1.87;;;;;;;;;;731337;190;919378;-68
2021/08/06 12:55:25;;;;;;;9.17;2.00;;;;;;;;;;728623;192;943944;-66
2021/08/06 12:57:51;;;;;;;2.80;1.90;;;;;;;;;;724997;193;955984;-70
2021/08/06 13:00:18;;;;;;;2.43;1.83;;;;;;;;;;729237;192;919155;-67
2021/08/06 13:02:44;;;;;;;2.90;2.10;;;;;;;;;;737688;186;918620;-69
2021/08/06 13:05:10;;;;;;;3.90;2.37;;;;;;;;;;727953;190;1021346;-69
2021/08/06 13:07:36;;;;;;;3.58;2.12;;;;;;;;;;725917;192;919935;-68
2021/08/06 13:10:02;;;;;;;3.30;1.70;;;;;;;;;;732422;191;919473;-68
2021/08/06 13:12:28;;;;;;;3.80;1.80;;;;;;;;;;727728;192;919149;-68
2021/08/06 13:14:55;;;;;;;3.27;1.80;;;;;;;;;;728851;189;919105;-66
2021/08/06 13:17:20;;;;;;;2.67;1.90;;;;;;;;;;732651;192;919452;-67
2021/08/06 13:19:46;;;;;;;2.73;2.03;;;;;;;;;;727986;192;919811;-66
2021/08/06 13:22:13;;;;;;;5.53;2.70;;;;;;;;;;726650;192;919820;-67
2021/08/06 13:24:39;;;;;;;4.05;2.28;;;;;;;;;;732516;192;919877;-66
2021/08/06 13:27:04;;;;;;;3.43;2.00;;;;;;;;;;727681;193;939240;-67
2021/08/06 13:29:30;;;;;;;3.10;2.10;;;;;;;;;;727342;190;960526;-66
2021/08/06 13:31:57;;;;;;;3.20;1.67;;;;;;;;;;729022;191;919927;-68
2021/08/06 13:34:23;;;;;;;3.17;2.03;;;;;;;;;;731624;192;919234;-67
2021/08/06 13:36:49;;;;;;;4.30;1.93;;;;;;;;;;726255;192;919278;-67
2021/08/06 13:39:14;;;;;;;3.57;2.10;;;;;;;;;;724922;192;919227;-67
2021/08/06 13:41:40;;;;;;;5.17;1.80;;;;;;;;;;730931;192;919495;-67
2021/08/06 13:44:06;;;;;;;2.53;1.63;;;;;;;;;;727072;192;918962;-68
2021/08/06 13:46:32;;;;;;;3.20;2.00;;;;;;;;;;727491;193;916838;-67
2021/08/06 13:48:58;;;;;;;3.20;1.40;;;;;;;;;;731000;191;905052;-67
2021/08/06 13:51:24;;;;;;;3.27;2.07;;;;;;;;;;728288;191;919836;-67
2021/08/06 13:53:51;;;;;;;2.83;1.67;;;;;;;;;;727432;192;919884;-67
2021/08/06 13:56:16;;;;;;;4.70;1.80;;;;;;;;;;726593;190;919414;-66
2021/08/06 13:58:42;;;;;;;2.50;1.73;;;;;;;;;;730617;192;929004;-67
2021/08/06 14:01:07;;;;;;;5.30;2.33;;;;;;;;;;725875;191;919569;-67
2021/08/06 14:03:33;;;;;;;4.33;2.23;;;;;;;;;;724797;191;925180;-67
2021/08/06 14:05:59;;;;;;;2.90;1.93;;;;;;;;;;731375;192;918283;-66
2021/08/06 14:08:25;;;;;;;3.87;1.77;;;;;;;;;;724593;190;1035257;-68
2021/08/06 14:10:51;;;;;;;4.30;2.63;;;;;;;;;;728125;191;918675;-69
2021/08/06 14:13:17;;;;;;;2.77;2.00;;;;;;;;;;735270;191;918238;-68
2021/08/06 14:15:42;;;;;;;4.70;2.30;;;;;;;;;;731217;189;914417;-69
2021/08/06 14:18:08;;;;;;;3.35;2.10;;;;;;;;;;730983;192;919755;-68
2021/08/06 14:20:35;;;;;;;5.93;2.42;;;;;;;;;;725510;191;2148220;-68
2021/08/06 14:23:01;;;;;;;3.17;2.10;;;;;;;;;;737530;189;918621;-67